RYR653Z EPWR-LDZD
Flight info
| Callsign | RYR653Z |
|---|---|
| Flight time | 1h 15m |
| Altitude | 36000 |
| Route | ULGIL T707 TOMTI DCT ODLIV DCT BEKVI DCT BUDEX DCT LIMRA DCT KFT DCT BERTA DCT KUDUL |
| Aircraft | B38M/M-SDE1FGHILORVWXY/HB1 |
Departure
| Time | 2026-05-06 16:03 |
|---|---|
| Airport | Copernicus Wrocław Airport (EPWR) |
Arrival
| Time | 2026-05-06 17:18 |
|---|---|
| Airport | Zadar Airport (LDZD) |
| Time | Latitude | Longitude | Altitude | Speed | Heading |
|---|---|---|---|---|---|
| 2026-05-06 15:30 | 51.10787 | 16.88253 | 414 ft | 0 kts | 27° |
| 2026-05-06 15:54 | 51.10777 | 16.88245 | 410 ft | 4 kts | 25° |
| 2026-05-06 15:54 | 51.10753 | 16.88228 | 404 ft | 3 kts | 25° |
| 2026-05-06 15:55 | 51.10734 | 16.88207 | 408 ft | 4 kts | 63° |
| 2026-05-06 15:55 | 51.10734 | 16.88171 | 411 ft | 4 kts | 112° |
| 2026-05-06 15:55 | 51.10739 | 16.88152 | 410 ft | 1 kts | 115° |
| 2026-05-06 15:55 | 51.10740 | 16.88150 | 411 ft | 0 kts | 115° |
| 2026-05-06 15:59 | 51.10735 | 16.88168 | 412 ft | 5 kts | 115° |
| 2026-05-06 15:59 | 51.10702 | 16.88277 | 412 ft | 17 kts | 115° |
| 2026-05-06 15:59 | 51.10636 | 16.88501 | 411 ft | 28 kts | 115° |
| 2026-05-06 16:00 | 51.10544 | 16.88798 | 413 ft | 30 kts | 116° |
| 2026-05-06 16:00 | 51.10458 | 16.89072 | 411 ft | 23 kts | 116° |
| 2026-05-06 16:00 | 51.10387 | 16.89305 | 412 ft | 24 kts | 116° |
| 2026-05-06 16:00 | 51.10309 | 16.89553 | 413 ft | 25 kts | 116° |
| 2026-05-06 16:01 | 51.10233 | 16.89804 | 410 ft | 25 kts | 116° |
| 2026-05-06 16:01 | 51.10171 | 16.89971 | 410 ft | 12 kts | 156° |
| 2026-05-06 16:01 | 51.10107 | 16.89942 | 412 ft | 11 kts | 203° |
| 2026-05-06 16:01 | 51.10034 | 16.89887 | 413 ft | 11 kts | 208° |
| 2026-05-06 16:02 | 51.09964 | 16.89829 | 415 ft | 12 kts | 208° |
| 2026-05-06 16:02 | 51.09913 | 16.89769 | 410 ft | 6 kts | 252° |
| 2026-05-06 16:02 | 51.09924 | 16.89704 | 413 ft | 7 kts | 295° |
| 2026-05-06 16:02 | 51.10019 | 16.89393 | 414 ft | 68 kts | 296° |
| 2026-05-06 16:03 | 51.10343 | 16.88340 | 416 ft | 141 kts | 296° |
| 2026-05-06 16:03 | 51.10849 | 16.86696 | 697 ft | 180 kts | 294° |
| 2026-05-06 16:03 | 51.11369 | 16.84850 | 1754 ft | 179 kts | 289° |
| 2026-05-06 16:03 | 51.11824 | 16.83046 | 2859 ft | 175 kts | 288° |
| 2026-05-06 16:04 | 51.12283 | 16.81195 | 3623 ft | 185 kts | 286° |
| 2026-05-06 16:04 | 51.12666 | 16.79188 | 4361 ft | 195 kts | 277° |
| 2026-05-06 16:04 | 51.12424 | 16.77047 | 4707 ft | 205 kts | 235° |
| 2026-05-06 16:04 | 51.11316 | 16.75627 | 4972 ft | 211 kts | 204° |
| 2026-05-06 16:05 | 51.09968 | 16.74654 | 5274 ft | 214 kts | 218° |
| 2026-05-06 16:05 | 51.09039 | 16.72820 | 5622 ft | 216 kts | 238° |
| 2026-05-06 16:05 | 51.08232 | 16.70741 | 5994 ft | 229 kts | 237° |
| 2026-05-06 16:05 | 51.07354 | 16.68501 | 6383 ft | 248 kts | 237° |
| 2026-05-06 16:06 | 51.06425 | 16.66110 | 6777 ft | 258 kts | 237° |
| 2026-05-06 16:06 | 51.05474 | 16.63645 | 7193 ft | 264 kts | 237° |
| 2026-05-06 16:06 | 51.04295 | 16.61414 | 7608 ft | 264 kts | 219° |
| 2026-05-06 16:06 | 51.02785 | 16.59748 | 8039 ft | 266 kts | 215° |
| 2026-05-06 16:07 | 51.01270 | 16.58042 | 8471 ft | 267 kts | 215° |
| 2026-05-06 16:07 | 50.99751 | 16.56317 | 8905 ft | 269 kts | 215° |
| 2026-05-06 16:07 | 50.98228 | 16.54580 | 9350 ft | 270 kts | 215° |
| 2026-05-06 16:07 | 50.96697 | 16.52830 | 9782 ft | 272 kts | 215° |
| 2026-05-06 16:08 | 50.95154 | 16.51066 | 10182 ft | 279 kts | 215° |
| 2026-05-06 16:08 | 50.93518 | 16.49193 | 10586 ft | 300 kts | 215° |
| 2026-05-06 16:08 | 50.91775 | 16.47197 | 11096 ft | 317 kts | 215° |
| 2026-05-06 16:08 | 50.89954 | 16.45114 | 11659 ft | 329 kts | 216° |
| 2026-05-06 16:09 | 50.88091 | 16.42989 | 12540 ft | 330 kts | 215° |
| 2026-05-06 16:09 | 50.86221 | 16.40859 | 13377 ft | 333 kts | 215° |
| 2026-05-06 16:09 | 50.84326 | 16.38702 | 14060 ft | 338 kts | 216° |
| 2026-05-06 16:09 | 50.82412 | 16.36527 | 14785 ft | 340 kts | 216° |
| 2026-05-06 16:10 | 50.80481 | 16.34333 | 15451 ft | 344 kts | 216° |
| 2026-05-06 16:10 | 50.78526 | 16.32117 | 16133 ft | 347 kts | 216° |
| 2026-05-06 16:10 | 50.76560 | 16.29889 | 16832 ft | 349 kts | 216° |
| 2026-05-06 16:10 | 50.74602 | 16.27674 | 17479 ft | 353 kts | 217° |
| 2026-05-06 16:11 | 50.72599 | 16.25409 | 18091 ft | 356 kts | 217° |
| 2026-05-06 16:11 | 50.70578 | 16.23127 | 18663 ft | 358 kts | 217° |
| 2026-05-06 16:11 | 50.68547 | 16.20836 | 19198 ft | 360 kts | 217° |
| 2026-05-06 16:11 | 50.66503 | 16.18533 | 19778 ft | 362 kts | 216° |
| 2026-05-06 16:12 | 50.64450 | 16.16222 | 20317 ft | 364 kts | 216° |
| 2026-05-06 16:12 | 50.62380 | 16.13896 | 20853 ft | 367 kts | 216° |
| 2026-05-06 16:12 | 50.60298 | 16.11557 | 21403 ft | 369 kts | 216° |
| 2026-05-06 16:12 | 50.58203 | 16.09207 | 21927 ft | 371 kts | 216° |
| 2026-05-06 16:13 | 50.56091 | 16.06841 | 22447 ft | 374 kts | 216° |
| 2026-05-06 16:13 | 50.53968 | 16.04465 | 22994 ft | 376 kts | 216° |
| 2026-05-06 16:13 | 50.51830 | 16.02074 | 23502 ft | 378 kts | 216° |
| 2026-05-06 16:13 | 50.49678 | 15.99671 | 23925 ft | 381 kts | 216° |
| 2026-05-06 16:14 | 50.47514 | 15.97257 | 24363 ft | 383 kts | 216° |
| 2026-05-06 16:14 | 50.46071 | 15.95649 | 24663 ft | 385 kts | 216° |
| 2026-05-06 16:14 | 50.43139 | 15.92385 | 25229 ft | 388 kts | 216° |
| 2026-05-06 16:14 | 50.40926 | 15.89925 | 25662 ft | 391 kts | 216° |
| 2026-05-06 16:15 | 50.39456 | 15.88293 | 25933 ft | 393 kts | 216° |
| 2026-05-06 16:15 | 50.36460 | 15.84970 | 26490 ft | 396 kts | 216° |
| 2026-05-06 16:15 | 50.34970 | 15.83320 | 26759 ft | 397 kts | 216° |
| 2026-05-06 16:15 | 50.32705 | 15.80813 | 27155 ft | 400 kts | 216° |
| 2026-05-06 16:16 | 50.30427 | 15.78294 | 27517 ft | 403 kts | 216° |
| 2026-05-06 16:16 | 50.28133 | 15.75761 | 27927 ft | 405 kts | 216° |
| 2026-05-06 16:16 | 50.25822 | 15.73212 | 28311 ft | 407 kts | 216° |
| 2026-05-06 16:16 | 50.23505 | 15.70660 | 28681 ft | 410 kts | 216° |
| 2026-05-06 16:17 | 50.21166 | 15.68087 | 29026 ft | 412 kts | 216° |
| 2026-05-06 16:17 | 50.18814 | 15.65502 | 29390 ft | 415 kts | 216° |
| 2026-05-06 16:17 | 50.16448 | 15.62907 | 29750 ft | 417 kts | 216° |
| 2026-05-06 16:17 | 50.14070 | 15.60299 | 30034 ft | 419 kts | 216° |
| 2026-05-06 16:18 | 50.11677 | 15.57680 | 30327 ft | 421 kts | 217° |
| 2026-05-06 16:18 | 50.09273 | 15.55053 | 30652 ft | 423 kts | 217° |
| 2026-05-06 16:18 | 50.06867 | 15.52425 | 31026 ft | 422 kts | 217° |
| 2026-05-06 16:18 | 50.04466 | 15.49808 | 31458 ft | 421 kts | 217° |
| 2026-05-06 16:19 | 50.02073 | 15.47201 | 31889 ft | 419 kts | 217° |
| 2026-05-06 16:19 | 49.99691 | 15.44611 | 32324 ft | 418 kts | 217° |
| 2026-05-06 16:19 | 49.97314 | 15.42029 | 32769 ft | 416 kts | 217° |
| 2026-05-06 16:19 | 49.94982 | 15.39499 | 33200 ft | 414 kts | 217° |
| 2026-05-06 16:20 | 49.92592 | 15.36909 | 33622 ft | 413 kts | 217° |
| 2026-05-06 16:20 | 49.90239 | 15.34364 | 34005 ft | 411 kts | 217° |
| 2026-05-06 16:20 | 49.87894 | 15.31828 | 34319 ft | 411 kts | 217° |
| 2026-05-06 16:20 | 49.85550 | 15.29298 | 34593 ft | 411 kts | 217° |
| 2026-05-06 16:21 | 49.83201 | 15.26764 | 34856 ft | 412 kts | 216° |
| 2026-05-06 16:21 | 49.80851 | 15.24232 | 35141 ft | 411 kts | 216° |
| 2026-05-06 16:21 | 49.78501 | 15.21704 | 35438 ft | 411 kts | 216° |
| 2026-05-06 16:21 | 49.76149 | 15.19177 | 35682 ft | 412 kts | 216° |
| 2026-05-06 16:22 | 49.71442 | 15.14126 | 35742 ft | 411 kts | 216° |
| 2026-05-06 16:22 | 49.66744 | 15.09098 | 35738 ft | 411 kts | 216° |
| 2026-05-06 16:23 | 49.62040 | 15.04076 | 35742 ft | 411 kts | 216° |
| 2026-05-06 16:23 | 49.57339 | 14.99068 | 35739 ft | 411 kts | 216° |
| 2026-05-06 16:24 | 49.52629 | 14.94064 | 35739 ft | 411 kts | 216° |
| 2026-05-06 16:24 | 49.47917 | 14.89068 | 35731 ft | 411 kts | 216° |
| 2026-05-06 16:25 | 49.43205 | 14.84085 | 35734 ft | 411 kts | 216° |
| 2026-05-06 16:25 | 49.38485 | 14.79105 | 35730 ft | 412 kts | 216° |
| 2026-05-06 16:26 | 49.33762 | 14.74134 | 35727 ft | 412 kts | 216° |
| 2026-05-06 16:26 | 49.29069 | 14.69206 | 35723 ft | 412 kts | 216° |
| 2026-05-06 16:27 | 49.24340 | 14.64252 | 35722 ft | 412 kts | 216° |
| 2026-05-06 16:27 | 49.19606 | 14.59305 | 35717 ft | 412 kts | 216° |
| 2026-05-06 16:28 | 49.14872 | 14.54369 | 35721 ft | 412 kts | 216° |
| 2026-05-06 16:28 | 49.10133 | 14.49439 | 35715 ft | 412 kts | 216° |
| 2026-05-06 16:29 | 49.05387 | 14.44514 | 35715 ft | 412 kts | 216° |
| 2026-05-06 16:29 | 49.00644 | 14.39604 | 35717 ft | 412 kts | 216° |
| 2026-05-06 16:30 | 48.96628 | 14.35687 | 35707 ft | 414 kts | 206° |
| 2026-05-06 16:30 | 48.92883 | 14.34285 | 35720 ft | 422 kts | 186° |
| 2026-05-06 16:30 | 48.89930 | 14.34360 | 35715 ft | 426 kts | 182° |
| 2026-05-06 16:31 | 48.84003 | 14.34838 | 35717 ft | 427 kts | 180° |
| 2026-05-06 16:31 | 48.78071 | 14.35445 | 35708 ft | 428 kts | 180° |
| 2026-05-06 16:32 | 48.72129 | 14.36088 | 35715 ft | 428 kts | 180° |
| 2026-05-06 16:32 | 48.66195 | 14.36734 | 35707 ft | 428 kts | 180° |
| 2026-05-06 16:33 | 48.60254 | 14.37379 | 35708 ft | 428 kts | 180° |
| 2026-05-06 16:34 | 48.51381 | 14.38340 | 35699 ft | 428 kts | 180° |
| 2026-05-06 16:34 | 48.45432 | 14.38982 | 35698 ft | 428 kts | 180° |
| 2026-05-06 16:35 | 48.39485 | 14.39622 | 35692 ft | 429 kts | 180° |
| 2026-05-06 16:35 | 48.33531 | 14.40262 | 35688 ft | 429 kts | 180° |
| 2026-05-06 16:36 | 48.27567 | 14.40901 | 35684 ft | 430 kts | 180° |
| 2026-05-06 16:36 | 48.21606 | 14.41539 | 35695 ft | 430 kts | 180° |
| 2026-05-06 16:37 | 48.15630 | 14.42177 | 35690 ft | 431 kts | 180° |
| 2026-05-06 16:37 | 48.09647 | 14.42813 | 35694 ft | 431 kts | 180° |
| 2026-05-06 16:38 | 48.03657 | 14.43449 | 35697 ft | 432 kts | 180° |
| 2026-05-06 16:38 | 47.97658 | 14.44085 | 35701 ft | 432 kts | 180° |
| 2026-05-06 16:39 | 47.91653 | 14.44707 | 35717 ft | 432 kts | 181° |
| 2026-05-06 16:39 | 47.85647 | 14.45102 | 35733 ft | 432 kts | 181° |
| 2026-05-06 16:40 | 47.79631 | 14.45515 | 35746 ft | 433 kts | 181° |
| 2026-05-06 16:40 | 47.73619 | 14.45929 | 35751 ft | 434 kts | 181° |
| 2026-05-06 16:41 | 47.67583 | 14.46343 | 35749 ft | 434 kts | 181° |
| 2026-05-06 16:41 | 47.61552 | 14.46757 | 35776 ft | 434 kts | 181° |
| 2026-05-06 16:42 | 47.55512 | 14.47171 | 35786 ft | 434 kts | 181° |
| 2026-05-06 16:42 | 47.49474 | 14.47582 | 35801 ft | 435 kts | 181° |
| 2026-05-06 16:43 | 47.43433 | 14.47994 | 35824 ft | 435 kts | 181° |
| 2026-05-06 16:43 | 47.37380 | 14.48405 | 35833 ft | 436 kts | 181° |
| 2026-05-06 16:44 | 47.31322 | 14.48816 | 35838 ft | 436 kts | 181° |
| 2026-05-06 16:44 | 47.25257 | 14.49226 | 35841 ft | 437 kts | 181° |
| 2026-05-06 16:45 | 47.19182 | 14.49636 | 35845 ft | 437 kts | 181° |
| 2026-05-06 16:45 | 47.13100 | 14.50046 | 35854 ft | 438 kts | 181° |
| 2026-05-06 16:46 | 47.07038 | 14.50453 | 35844 ft | 440 kts | 181° |
| 2026-05-06 16:46 | 47.00919 | 14.50863 | 35841 ft | 440 kts | 181° |
| 2026-05-06 16:47 | 46.94786 | 14.51273 | 35851 ft | 442 kts | 181° |
| 2026-05-06 16:47 | 46.88646 | 14.51683 | 35869 ft | 442 kts | 181° |
| 2026-05-06 16:48 | 46.82495 | 14.52093 | 35852 ft | 443 kts | 181° |
| 2026-05-06 16:48 | 46.76333 | 14.52502 | 35847 ft | 443 kts | 181° |
| 2026-05-06 16:49 | 46.70164 | 14.52911 | 35853 ft | 444 kts | 181° |
| 2026-05-06 16:49 | 46.63995 | 14.53337 | 35858 ft | 445 kts | 178° |
| 2026-05-06 16:49 | 46.60963 | 14.54296 | 35864 ft | 451 kts | 163° |
| 2026-05-06 16:50 | 46.58002 | 14.55835 | 35856 ft | 452 kts | 165° |
| 2026-05-06 16:50 | 46.52059 | 14.58858 | 35874 ft | 453 kts | 164° |
| 2026-05-06 16:51 | 46.46124 | 14.61926 | 35879 ft | 453 kts | 165° |
| 2026-05-06 16:51 | 46.40020 | 14.63764 | 35897 ft | 449 kts | 173° |
| 2026-05-06 16:52 | 46.33871 | 14.65349 | 35908 ft | 449 kts | 174° |
| 2026-05-06 16:52 | 46.27755 | 14.66896 | 35908 ft | 449 kts | 174° |
| 2026-05-06 16:53 | 46.21597 | 14.68457 | 35913 ft | 450 kts | 174° |
| 2026-05-06 16:53 | 46.15387 | 14.70027 | 35913 ft | 450 kts | 174° |
| 2026-05-06 16:54 | 46.09262 | 14.71573 | 35920 ft | 450 kts | 174° |
| 2026-05-06 16:54 | 46.03092 | 14.73126 | 35912 ft | 450 kts | 174° |
| 2026-05-06 16:55 | 45.96930 | 14.74674 | 35914 ft | 450 kts | 174° |
| 2026-05-06 16:55 | 45.90757 | 14.76221 | 35558 ft | 449 kts | 174° |
| 2026-05-06 16:55 | 45.87686 | 14.76989 | 34899 ft | 448 kts | 174° |
| 2026-05-06 16:56 | 45.84617 | 14.77756 | 34189 ft | 450 kts | 174° |
| 2026-05-06 16:56 | 45.81527 | 14.78527 | 33423 ft | 451 kts | 174° |
| 2026-05-06 16:56 | 45.78436 | 14.79299 | 32664 ft | 451 kts | 174° |
| 2026-05-06 16:56 | 45.75352 | 14.80067 | 32039 ft | 448 kts | 174° |
| 2026-05-06 16:57 | 45.72290 | 14.80829 | 31490 ft | 444 kts | 174° |
| 2026-05-06 16:57 | 45.69261 | 14.81581 | 30920 ft | 443 kts | 174° |
| 2026-05-06 16:57 | 45.66215 | 14.82338 | 30310 ft | 446 kts | 174° |
| 2026-05-06 16:57 | 45.63148 | 14.83098 | 29679 ft | 446 kts | 174° |
| 2026-05-06 16:58 | 45.60092 | 14.83855 | 29092 ft | 445 kts | 174° |
| 2026-05-06 16:58 | 45.57057 | 14.84605 | 28513 ft | 441 kts | 174° |
| 2026-05-06 16:58 | 45.54048 | 14.85349 | 27951 ft | 438 kts | 174° |
| 2026-05-06 16:58 | 45.51058 | 14.86088 | 27391 ft | 434 kts | 174° |
| 2026-05-06 16:59 | 45.48096 | 14.86819 | 26835 ft | 430 kts | 174° |
| 2026-05-06 16:59 | 45.45166 | 14.87540 | 26296 ft | 426 kts | 174° |
| 2026-05-06 16:59 | 45.42265 | 14.88255 | 25810 ft | 420 kts | 174° |
| 2026-05-06 16:59 | 45.39401 | 14.88959 | 25294 ft | 416 kts | 174° |
| 2026-05-06 17:00 | 45.36562 | 14.89656 | 24767 ft | 413 kts | 173° |
| 2026-05-06 17:00 | 45.33744 | 14.90347 | 24235 ft | 410 kts | 173° |
| 2026-05-06 17:00 | 45.30939 | 14.91035 | 23692 ft | 407 kts | 173° |
| 2026-05-06 17:00 | 45.28155 | 14.91717 | 23098 ft | 405 kts | 173° |
| 2026-05-06 17:01 | 45.25391 | 14.92392 | 22532 ft | 401 kts | 173° |
| 2026-05-06 17:01 | 45.22691 | 14.93052 | 22019 ft | 397 kts | 173° |
| 2026-05-06 17:01 | 45.19983 | 14.93713 | 21513 ft | 393 kts | 173° |
| 2026-05-06 17:01 | 45.17300 | 14.94368 | 20995 ft | 389 kts | 173° |
| 2026-05-06 17:02 | 45.14645 | 14.95015 | 20509 ft | 386 kts | 173° |
| 2026-05-06 17:02 | 45.12007 | 14.95657 | 19994 ft | 383 kts | 173° |
| 2026-05-06 17:02 | 45.09388 | 14.96295 | 19501 ft | 380 kts | 173° |
| 2026-05-06 17:02 | 45.06786 | 14.96927 | 19006 ft | 380 kts | 173° |
| 2026-05-06 17:03 | 45.04188 | 14.97556 | 18521 ft | 378 kts | 173° |
| 2026-05-06 17:03 | 45.01600 | 14.98185 | 17999 ft | 376 kts | 173° |
| 2026-05-06 17:03 | 44.99032 | 14.98806 | 17465 ft | 373 kts | 173° |
| 2026-05-06 17:03 | 44.96488 | 14.99422 | 16975 ft | 369 kts | 173° |
| 2026-05-06 17:04 | 44.94821 | 14.99826 | 16644 ft | 367 kts | 174° |
| 2026-05-06 17:04 | 44.92317 | 15.00431 | 16178 ft | 363 kts | 174° |
| 2026-05-06 17:04 | 44.89840 | 15.01030 | 15713 ft | 359 kts | 174° |
| 2026-05-06 17:04 | 44.87374 | 15.01624 | 15232 ft | 359 kts | 174° |
| 2026-05-06 17:05 | 44.84911 | 15.02218 | 14770 ft | 359 kts | 174° |
| 2026-05-06 17:05 | 44.82453 | 15.02811 | 14284 ft | 359 kts | 174° |
| 2026-05-06 17:05 | 44.79997 | 15.03402 | 13804 ft | 357 kts | 174° |
| 2026-05-06 17:05 | 44.77559 | 15.03989 | 13287 ft | 355 kts | 174° |
| 2026-05-06 17:06 | 44.75134 | 15.04572 | 12754 ft | 351 kts | 174° |
| 2026-05-06 17:06 | 44.72741 | 15.05147 | 12310 ft | 347 kts | 174° |
| 2026-05-06 17:06 | 44.70373 | 15.05715 | 11847 ft | 343 kts | 174° |
| 2026-05-06 17:06 | 44.68019 | 15.06103 | 11339 ft | 338 kts | 186° |
| 2026-05-06 17:07 | 44.65780 | 15.05383 | 10924 ft | 324 kts | 207° |
| 2026-05-06 17:07 | 44.63816 | 15.04023 | 10847 ft | 308 kts | 210° |
| 2026-05-06 17:07 | 44.61946 | 15.02689 | 10699 ft | 296 kts | 211° |
| 2026-05-06 17:07 | 44.60148 | 15.01385 | 10548 ft | 286 kts | 211° |
| 2026-05-06 17:08 | 44.58411 | 15.00108 | 10385 ft | 277 kts | 211° |
| 2026-05-06 17:08 | 44.56733 | 14.98867 | 10212 ft | 268 kts | 212° |
| 2026-05-06 17:08 | 44.55110 | 14.97662 | 10053 ft | 260 kts | 212° |
| 2026-05-06 17:08 | 44.53507 | 14.96469 | 9771 ft | 263 kts | 212° |
| 2026-05-06 17:09 | 44.51888 | 14.95267 | 9433 ft | 264 kts | 212° |
| 2026-05-06 17:09 | 44.50265 | 14.94062 | 9119 ft | 264 kts | 211° |
| 2026-05-06 17:09 | 44.48647 | 14.92861 | 8795 ft | 263 kts | 211° |
| 2026-05-06 17:09 | 44.47037 | 14.91666 | 8476 ft | 261 kts | 211° |
| 2026-05-06 17:10 | 44.45350 | 14.90736 | 8138 ft | 264 kts | 192° |
| 2026-05-06 17:10 | 44.43509 | 14.90938 | 7816 ft | 271 kts | 165° |
| 2026-05-06 17:10 | 44.41877 | 14.92292 | 7491 ft | 278 kts | 140° |
| 2026-05-06 17:10 | 44.40500 | 14.94191 | 7178 ft | 278 kts | 138° |
| 2026-05-06 17:11 | 44.39124 | 14.96084 | 6856 ft | 277 kts | 139° |
| 2026-05-06 17:11 | 44.37752 | 14.97969 | 6527 ft | 275 kts | 138° |
| 2026-05-06 17:11 | 44.36393 | 14.99834 | 6195 ft | 273 kts | 138° |
| 2026-05-06 17:11 | 44.35037 | 15.01693 | 5809 ft | 273 kts | 138° |
| 2026-05-06 17:12 | 44.33686 | 15.03543 | 5428 ft | 272 kts | 139° |
| 2026-05-06 17:12 | 44.32333 | 15.05395 | 5014 ft | 273 kts | 138° |
| 2026-05-06 17:12 | 44.30970 | 15.07258 | 4530 ft | 276 kts | 138° |
| 2026-05-06 17:12 | 44.29590 | 15.09143 | 4043 ft | 279 kts | 138° |
| 2026-05-06 17:13 | 44.28197 | 15.11046 | 3541 ft | 281 kts | 137° |
| 2026-05-06 17:13 | 44.26797 | 15.12958 | 3094 ft | 281 kts | 137° |
| 2026-05-06 17:13 | 44.25442 | 15.14780 | 3033 ft | 266 kts | 137° |
| 2026-05-06 17:13 | 44.24171 | 15.16504 | 3039 ft | 243 kts | 137° |
| 2026-05-06 17:14 | 44.23020 | 15.18072 | 2955 ft | 222 kts | 137° |
| 2026-05-06 17:14 | 44.21962 | 15.19513 | 2872 ft | 202 kts | 137° |
| 2026-05-06 17:14 | 44.21010 | 15.20812 | 2750 ft | 184 kts | 137° |
| 2026-05-06 17:14 | 44.20128 | 15.22014 | 2529 ft | 169 kts | 137° |
| 2026-05-06 17:15 | 44.19317 | 15.23120 | 2338 ft | 155 kts | 137° |
| 2026-05-06 17:15 | 44.18598 | 15.24100 | 2170 ft | 135 kts | 137° |
| 2026-05-06 17:15 | 44.17929 | 15.25011 | 1988 ft | 134 kts | 137° |
| 2026-05-06 17:15 | 44.17261 | 15.25921 | 1812 ft | 133 kts | 137° |
| 2026-05-06 17:16 | 44.16597 | 15.26827 | 1626 ft | 134 kts | 136° |
| 2026-05-06 17:16 | 44.15925 | 15.27739 | 1438 ft | 135 kts | 136° |
| 2026-05-06 17:16 | 44.15253 | 15.28654 | 1264 ft | 135 kts | 136° |
| 2026-05-06 17:16 | 44.14582 | 15.29566 | 1085 ft | 135 kts | 135° |
| 2026-05-06 17:17 | 44.13912 | 15.30485 | 858 ft | 135 kts | 135° |
| 2026-05-06 17:17 | 44.13244 | 15.31393 | 697 ft | 133 kts | 135° |
| 2026-05-06 17:17 | 44.12579 | 15.32284 | 519 ft | 135 kts | 133° |
| 2026-05-06 17:17 | 44.11916 | 15.33195 | 357 ft | 133 kts | 134° |
| 2026-05-06 17:18 | 44.11255 | 15.34089 | 260 ft | 125 kts | 133° |
| 2026-05-06 17:18 | 44.10815 | 15.34691 | 263 ft | 57 kts | 135° |
| 2026-05-06 17:18 | 44.10573 | 15.35022 | 265 ft | 48 kts | 135° |
| 2026-05-06 17:18 | 44.10334 | 15.35344 | 265 ft | 48 kts | 135° |
| 2026-05-06 17:19 | 44.10113 | 15.35645 | 270 ft | 31 kts | 135° |
| 2026-05-06 17:19 | 44.10030 | 15.35707 | 271 ft | 9 kts | 205° |
| 2026-05-06 17:19 | 44.09999 | 15.35677 | 270 ft | 2 kts | 217° |
| 2026-05-06 17:19 | 44.09980 | 15.35655 | 270 ft | 5 kts | 224° |
| 2026-05-06 17:20 | 44.09948 | 15.35609 | 270 ft | 8 kts | 229° |
| 2026-05-06 17:20 | 44.09906 | 15.35545 | 270 ft | 10 kts | 218° |
| 2026-05-06 17:20 | 44.09837 | 15.35532 | 271 ft | 10 kts | 173° |
| 2026-05-06 17:20 | 44.09807 | 15.35536 | 272 ft | 0 kts | 175° |
| 2026-05-06 17:21 | 44.09801 | 15.35537 | 272 ft | 1 kts | 176° |
| 2026-05-06 17:21 | 44.09787 | 15.35538 | 272 ft | 3 kts | 178° |
| 2026-05-06 17:21 | 44.09762 | 15.35539 | 273 ft | 4 kts | 178° |
| 2026-05-06 17:21 | 44.09729 | 15.35540 | 273 ft | 5 kts | 178° |
| 2026-05-06 17:22 | 44.09691 | 15.35541 | 274 ft | 5 kts | 182° |
| 2026-05-06 17:22 | 44.09672 | 15.35540 | 275 ft | 0 kts | 183° |
| 2026-05-06 17:22 | 44.09669 | 15.35539 | 275 ft | 1 kts | 186° |
| 2026-05-06 17:22 | 44.09663 | 15.35538 | 275 ft | 1 kts | 189° |
| 2026-05-06 17:23 | 44.09653 | 15.35536 | 276 ft | 2 kts | 188° |
| 2026-05-06 17:23 | 44.09638 | 15.35533 | 276 ft | 2 kts | 186° |
| 2026-05-06 17:23 | 44.09620 | 15.35530 | 277 ft | 3 kts | 186° |
| 2026-05-06 17:23 | 44.09611 | 15.35524 | 277 ft | 0 kts | 231° |
| 2026-05-06 17:24 | 44.09610 | 15.35515 | 277 ft | 2 kts | 263° |
| 2026-05-06 17:24 | 44.09610 | 15.35479 | 277 ft | 4 kts | 271° |
| 2026-05-06 17:24 | 44.09610 | 15.35452 | 277 ft | 0 kts | 273° |